Time;durP1;ratioP1;P1;durP2;ratioP2;P2;SDS_P1;SDS_P2;PMS_P1;PMS_P2;Temp;Humidity;BMP_temperature;BMP_pressure;BME280_temperature;BME280_humidity;BME280_pressure;Samples;Min_cycle;Max_cycle;Signal;HPM_P1;HPM_P2
2021/09/07 00:01:59;;;;;;;18.85;9.53;;;;;;;7.24;63.63;101372.28;1714860;83;21247;-80
2021/09/07 00:05:05;;;;;;;24.90;9.53;;;;;;;7.25;63.61;101369.95;1714632;82;21766;-80
2021/09/07 00:08:11;;;;;;;25.25;9.53;;;;;;;7.24;63.61;101376.36;1715925;83;21925;-79
2021/09/07 00:11:17;;;;;;;23.12;10.10;;;;;;;7.22;63.55;101372.42;1714391;82;21223;-79
2021/09/07 00:14:23;;;;;;;29.72;10.85;;;;;;;7.20;63.58;101376.25;1714728;83;21216;-79
2021/09/07 00:17:30;;;;;;;27.62;9.53;;;;;;;7.16;63.65;101381.11;1716210;83;21310;-79
2021/09/07 00:20:36;;;;;;;20.02;10.10;;;;;;;7.13;63.78;101380.85;1716069;83;21317;-79
2021/09/07 00:23:42;;;;;;;24.55;9.08;;;;;;;7.11;63.87;101373.33;1715610;83;21227;-79
2021/09/07 00:26:47;;;;;;;21.85;9.43;;;;;;;7.10;63.93;101373.44;1714680;83;21200;-78
2021/09/07 00:29:53;;;;;;;30.77;10.05;;;;;;;7.08;63.99;101367.27;1715158;83;21362;-78
2021/09/07 00:32:59;;;;;;;24.30;10.13;;;;;;;7.05;64.09;101367.52;1714623;83;21238;-78
2021/09/07 00:36:04;;;;;;;19.25;8.73;;;;;;;7.06;64.15;101370.62;1714505;83;21318;-78
2021/09/07 00:39:11;;;;;;;26.60;9.48;;;;;;;7.04;64.19;101366.66;1715520;83;21878;-78
2021/09/07 00:42:17;;;;;;;26.95;9.18;;;;;;;7.05;64.20;101368.87;1713486;83;21346;-78
2021/09/07 00:45:23;;;;;;;20.90;8.85;;;;;;;7.04;64.18;101365.30;1714565;82;21211;-77
2021/09/07 00:48:29;;;;;;;23.12;9.03;;;;;;;7.04;64.19;101372.09;1715902;83;21192;-78
2021/09/07 00:51:36;;;;;;;26.50;10.10;;;;;;;7.04;64.19;101369.88;1715898;83;21200;-78
2021/09/07 00:54:45;;;;;;;25.02;9.33;;;;;;;7.02;64.22;101373.23;1713746;83;21338;-78
2021/09/07 00:57:51;;;;;;;18.98;8.20;;;;;;;7.01;64.27;101371.02;1714710;83;22087;-79
2021/09/07 01:00:57;;;;;;;20.60;8.93;;;;;;;6.98;64.32;101366.31;1714730;83;21794;-78
2021/09/07 01:04:06;;;;;;;21.93;9.85;;;;;;;6.95;64.46;101372.86;1715867;83;21310;-78
2021/09/07 01:07:13;;;;;;;26.85;9.20;;;;;;;6.93;64.51;101370.77;1716170;83;21354;-79
2021/09/07 01:10:20;;;;;;;33.33;10.50;;;;;;;6.90;64.53;101373.23;1714300;83;21239;-79
2021/09/07 01:13:26;;;;;;;23.57;9.15;;;;;;;6.87;64.58;101371.30;1714671;82;21833;-79
2021/09/07 01:16:33;;;;;;;20.68;8.70;;;;;;;6.84;64.64;101362.87;1714793;82;21548;-78
2021/09/07 01:19:47;;;;;;;23.80;9.90;;;;;;;6.83;64.77;101372.03;1714601;83;21272;-79
2021/09/07 01:22:49;;;;;;;26.87;9.55;;;;;;;6.80;64.90;101363.25;1716015;83;21377;-79
2021/09/07 01:25:56;;;;;;;22.73;9.30;;;;;;;6.76;65.03;101366.71;1715566;83;21361;-78
2021/09/07 01:29:02;;;;;;;29.57;9.98;;;;;;;6.74;65.12;101372.78;1716048;83;21196;-78
2021/09/07 01:32:11;;;;;;;20.40;10.48;;;;;;;6.71;65.28;101364.87;1715906;83;21306;-78
2021/09/07 01:35:17;;;;;;;22.15;9.83;;;;;;;6.68;65.48;101367.86;1716964;83;21204;-78
2021/09/07 01:38:24;;;;;;;28.47;10.60;;;;;;;6.65;65.71;101373.54;1716213;83;21897;-78
2021/09/07 01:41:30;;;;;;;29.55;11.40;;;;;;;6.61;65.88;101373.41;1713174;83;21334;-78
2021/09/07 01:44:36;;;;;;;22.30;9.68;;;;;;;6.57;66.17;101371.93;1717002;83;21254;-78
2021/09/07 01:47:44;;;;;;;22.17;10.38;;;;;;;6.54;66.36;101368.09;1716114;83;21867;-79
2021/09/07 01:50:49;;;;;;;29.23;10.55;;;;;;;6.50;66.58;101372.94;1715121;83;21401;-78
2021/09/07 01:53:56;;;;;;;21.65;9.33;;;;;;;6.47;66.74;101374.53;1716091;83;21196;-78
2021/09/07 01:57:04;;;;;;;23.55;10.40;;;;;;;6.45;66.89;101384.67;1715801;83;21387;-78
2021/09/07 02:00:13;;;;;;;26.62;10.10;;;;;;;6.43;67.02;101383.05;1715889;83;21358;-78
2021/09/07 02:03:18;;;;;;;19.02;10.03;;;;;;;6.39;67.21;101387.37;1715969;83;21334;-78
2021/09/07 02:06:24;;;;;;;21.30;10.20;;;;;;;6.38;67.41;101388.36;1716941;83;21878;-79
2021/09/07 02:09:30;;;;;;;30.85;10.38;;;;;;;6.35;67.59;101394.06;1714577;83;21342;-78
2021/09/07 02:12:34;;;;;;;27.17;10.15;;;;;;;6.34;67.68;101395.02;1714697;83;21973;-78
2021/09/07 02:15:41;;;;;;;22.55;10.10;;;;;;;6.33;67.76;101389.22;1714570;82;21187;-79
2021/09/07 02:18:48;;;;;;;19.62;9.98;;;;;;;6.34;67.83;101386.88;1716130;83;21310;-79
2021/09/07 02:21:55;;;;;;;23.80;9.75;;;;;;;6.32;67.78;101395.66;1714470;83;21203;-78
2021/09/07 02:25:02;;;;;;;24.55;10.30;;;;;;;6.32;67.83;101394.80;1715944;83;21857;-78
2021/09/07 02:28:09;;;;;;;21.35;10.48;;;;;;;6.28;67.98;101394.16;1715961;83;21742;-78
2021/09/07 02:31:17;;;;;;;29.50;11.28;;;;;;;6.26;68.04;101393.44;1715438;83;21227;-78
2021/09/07 02:34:23;;;;;;;23.05;10.58;;;;;;;6.23;68.07;101397.74;1715853;83;21334;-78
2021/09/07 02:37:29;;;;;;;25.88;12.03;;;;;;;6.22;68.17;101400.59;1716119;83;21302;-78
2021/09/07 02:40:37;;;;;;;26.15;10.63;;;;;;;6.22;68.36;101402.81;1715870;83;21892;-78
2021/09/07 02:43:42;;;;;;;23.57;10.60;;;;;;;6.22;68.44;101405.53;1713085;83;21220;-77
2021/09/07 02:46:48;;;;;;;28.07;10.82;;;;;;;6.24;68.61;101413.55;1713139;84;21366;-78
2021/09/07 02:49:53;;;;;;;25.95;9.90;;;;;;;6.25;68.77;101412.06;1713389;84;21814;-78
2021/09/07 02:52:58;;;;;;;26.45;10.18;;;;;;;6.26;68.81;101419.25;1713025;84;21366;-78
2021/09/07 02:56:06;;;;;;;20.65;10.18;;;;;;;6.28;68.72;101424.05;1713523;84;21361;-78
2021/09/07 02:59:13;;;;;;;26.10;9.90;;;;;;;6.29;68.77;101420.84;1711706;83;21203;-78
2021/09/07 03:02:19;;;;;;;29.70;10.35;;;;;;;6.29;68.70;101420.34;1712194;84;21188;-78
2021/09/07 03:05:26;;;;;;;22.85;9.45;;;;;;;6.30;68.74;101422.56;1714062;84;21212;-78
2021/09/07 03:08:32;;;;;;;24.43;10.40;;;;;;;6.29;68.64;101425.78;1711869;84;21207;-78
2021/09/07 03:11:38;;;;;;;22.65;10.58;;;;;;;6.28;68.52;101421.34;1712519;84;21335;-78
2021/09/07 03:14:44;;;;;;;29.60;11.73;;;;;;;6.27;68.54;101427.77;1713205;84;21197;-78
2021/09/07 03:17:50;;;;;;;28.30;10.95;;;;;;;6.26;68.66;101430.12;1714151;84;21307;-78
2021/09/07 03:20:55;;;;;;;21.95;9.90;;;;;;;6.25;68.79;101425.64;1711721;84;21207;-78
2021/09/07 03:24:02;;;;;;;21.27;9.45;;;;;;;6.26;68.86;101433.33;1711752;84;21755;-78
2021/09/07 03:27:10;;;;;;;33.15;10.40;;;;;;;6.28;68.97;101433.56;1711823;83;21267;-78
2021/09/07 03:30:17;;;;;;;24.72;10.78;;;;;;;6.32;69.02;101440.49;1713326;84;21374;-78
2021/09/07 03:33:22;;;;;;;21.68;10.15;;;;;;;6.38;69.09;101435.92;1713144;84;21857;-78
2021/09/07 03:36:27;;;;;;;22.62;10.85;;;;;;;6.46;69.09;101438.53;1711830;84;21839;-79
2021/09/07 03:39:33;;;;;;;26.55;9.90;;;;;;;6.55;69.01;101441.38;1711797;84;21754;-78
2021/09/07 03:42:39;;;;;;;32.53;10.75;;;;;;;6.65;68.89;101449.66;1712635;84;21345;-79
2021/09/07 03:45:45;;;;;;;24.35;10.08;;;;;;;6.71;68.67;101450.52;1713095;83;21830;-79
2021/09/07 03:48:51;;;;;;;23.80;10.50;;;;;;;6.80;68.42;101449.78;1716172;83;21310;-78
2021/09/07 03:51:57;;;;;;;19.02;8.73;;;;;;;6.91;68.20;101451.62;1715133;83;21909;-79
2021/09/07 03:55:04;;;;;;;25.62;9.50;;;;;;;7.02;67.98;101446.18;1715849;82;21823;-79
2021/09/07 03:58:11;;;;;;;23.80;10.25;;;;;;;7.13;67.72;101446.66;1715310;83;22663;-79
2021/09/07 04:01:17;;;;;;;21.52;9.83;;;;;;;7.23;67.53;101453.06;1714475;83;21279;-79
2021/09/07 04:04:25;;;;;;;19.07;10.35;;;;;;;7.34;67.34;101461.69;1714492;83;21347;-79
2021/09/07 04:07:33;;;;;;;26.35;9.83;;;;;;;7.47;67.11;101465.62;1714679;82;21279;-79
2021/09/07 04:10:39;;;;;;;21.57;10.55;;;;;;;7.58;66.80;101458.80;1716976;83;21684;-78
2021/09/07 04:13:46;;;;;;;25.88;11.18;;;;;;;7.70;66.67;101468.64;1714253;83;21290;-78
2021/09/07 04:16:53;;;;;;;21.02;9.18;;;;;;;7.83;66.47;101463.88;1715994;83;21841;-78
2021/09/07 04:20:01;;;;;;;29.67;11.75;;;;;;;7.98;66.38;101467.66;1715518;83;21330;-78
2021/09/07 04:23:05;;;;;;;28.55;12.00;;;;;;;8.11;66.33;101476.01;1728861;82;21885;-77
2021/09/07 04:26:12;;;;;;;29.37;12.00;;;;;;;8.28;66.22;101475.03;1737671;82;21353;-78
2021/09/07 04:29:20;;;;;;;27.02;11.75;;;;;;;8.45;65.99;101477.20;1734406;82;21899;-78
2021/09/07 04:32:26;;;;;;;26.87;10.55;;;;;;;8.61;65.71;101469.88;1725703;82;21405;-78
2021/09/07 04:35:32;;;;;;;22.55;9.58;;;;;;;8.80;65.55;101472.73;1698642;82;21369;-78
2021/09/07 04:38:38;;;;;;;20.68;8.58;;;;;;;8.97;65.14;101468.48;1710046;82;21246;-78
2021/09/07 04:41:43;;;;;;;21.70;6.90;;;;;;;9.14;64.70;101471.92;1729928;82;21289;-77
2021/09/07 04:44:51;;;;;;;14.98;7.67;;;;;;;9.32;63.91;101472.12;1731709;81;21321;-78
2021/09/07 04:47:57;;;;;;;18.15;6.33;;;;;;;9.51;62.93;101484.10;1737993;82;21156;-79
2021/09/07 04:51:08;;;;;;;13.83;6.67;;;;;;;9.66;62.64;101482.17;1717648;83;21181;-79
2021/09/07 04:54:15;;;;;;;21.50;6.72;;;;;;;9.80;61.95;101480.89;1737264;82;21173;-78
2021/09/07 04:57:21;;;;;;;15.23;6.42;;;;;;;9.93;61.63;101488.31;1739454;81;21133;-79
2021/09/07 05:00:27;;;;;;;12.33;6.05;;;;;;;10.08;61.35;101490.61;1722253;81;21318;-78
2021/09/07 05:03:35;;;;;;;47.58;6.80;;;;;;;10.20;60.57;101488.06;1730799;81;21204;-80
2021/09/07 05:06:40;;;;;;;18.82;5.55;;;;;;;10.29;60.64;101489.96;1719093;81;21192;-79
2021/09/07 05:09:48;;;;;;;14.40;5.87;;;;;;;10.40;60.15;101489.82;1715080;81;21491;-80
2021/09/07 05:12:54;;;;;;;12.35;5.58;;;;;;;10.49;60.02;101484.84;1735393;81;21251;-79
2021/09/07 05:16:05;;;;;;;17.65;5.22;;;;;;;10.63;59.92;101493.56;1733574;81;21195;-77
2021/09/07 05:19:15;;;;;;;14.83;5.92;;;;;;;10.75;59.63;101499.23;1737555;81;21310;-78
2021/09/07 05:22:21;;;;;;;17.25;5.97;;;;;;;10.86;59.43;101503.14;1733301;81;21679;-82
2021/09/07 05:25:28;;;;;;;13.62;5.42;;;;;;;10.97;59.00;101504.34;1727321;81;21208;-77
2021/09/07 05:28:35;;;;;;;11.30;5.30;;;;;;;11.08;58.75;101499.69;1730943;81;21299;-78
2021/09/07 05:31:45;;;;;;;11.28;5.40;;;;;;;11.22;58.33;101506.04;1733299;81;21341;-78
2021/09/07 05:34:54;;;;;;;14.30;5.00;;;;;;;11.36;58.19;101500.56;1708724;82;21198;-78
2021/09/07 05:38:03;;;;;;;12.18;5.65;;;;;;;11.48;57.52;101494.73;1714139;81;21324;-79
2021/09/07 05:41:08;;;;;;;13.65;5.08;;;;;;;11.65;57.30;101507.23;1716195;81;21220;-81
2021/09/07 05:44:15;;;;;;;5.87;3.90;;;;;;;11.79;56.71;101513.55;1716776;81;21225;-79
2021/09/07 05:47:23;;;;;;;9.23;4.50;;;;;;;11.93;56.31;101506.20;1714163;81;21191;-79
2021/09/07 05:50:35;;;;;;;18.48;4.30;;;;;;;12.12;55.67;101511.17;1700762;82;21260;-81
2021/09/07 05:53:46;;;;;;;8.98;4.40;;;;;;;12.30;54.83;101516.14;1722614;81;21252;-79
2021/09/07 05:56:57;;;;;;;19.02;5.08;;;;;;;12.49;52.99;101514.58;1719005;82;21270;-77
2021/09/07 06:00:02;;;;;;;9.60;4.05;;;;;;;12.65;52.53;101519.83;1735667;81;21596;-77
2021/09/07 06:03:15;;;;;;;10.03;3.67;;;;;;;12.85;51.35;101515.88;1864042;75;22202;-76
2021/09/07 06:06:24;;;;;;;8.30;4.17;;;;;;;12.93;50.53;101518.65;1834786;76;21836;-77
2021/09/07 06:09:31;;;;;;;9.50;3.55;;;;;;;13.07;49.95;101525.94;1842766;76;21164;-77
2021/09/07 06:12:35;;;;;;;13.95;4.50;;;;;;;13.18;49.42;101514.17;1833408;76;21927;-77
2021/09/07 06:15:42;;;;;;;6.85;3.52;;;;;;;13.31;48.84;101520.59;1834749;76;21939;-77
2021/09/07 06:18:48;;;;;;;7.92;3.80;;;;;;;13.46;47.62;101521.72;1772738;80;21750;-77
2021/09/07 06:21:53;;;;;;;8.35;3.75;;;;;;;13.54;46.57;101527.22;1761686;79;22173;-76
2021/09/07 06:25:02;;;;;;;10.08;4.22;;;;;;;13.61;46.48;101526.58;1767281;79;21220;-80
2021/09/07 06:28:10;;;;;;;8.55;3.77;;;;;;;13.69;46.85;101526.09;1769150;79;21351;-79
2021/09/07 06:31:15;;;;;;;11.70;4.50;;;;;;;13.83;46.66;101527.83;1800006;79;21821;-79
2021/09/07 06:34:24;;;;;;;10.80;3.10;;;;;;;13.93;45.44;101530.80;1797838;78;21180;-78
2021/09/07 06:37:30;;;;;;;7.08;3.15;;;;;;;14.06;45.11;101533.03;1796090;78;21215;-78
2021/09/07 06:40:35;;;;;;;8.30;2.77;;;;;;;14.17;43.29;101534.09;1797732;78;21482;-78
2021/09/07 06:43:41;;;;;;;10.40;3.27;;;;;;;14.23;43.24;101531.17;1796005;77;21856;-79
2021/09/07 06:46:47;;;;;;;5.15;2.30;;;;;;;14.33;43.69;101542.88;1798910;77;21530;-79
2021/09/07 06:49:53;;;;;;;10.93;2.70;;;;;;;14.43;43.40;101538.58;1771329;80;21879;-76
2021/09/07 06:52:57;;;;;;;5.17;2.02;;;;;;;14.51;42.67;101547.73;1796022;78;21907;-79
2021/09/07 06:56:03;;;;;;;11.20;2.75;;;;;;;14.53;41.99;101548.41;1784287;78;21252;-86
2021/09/07 06:59:09;;;;;;;3.55;1.60;;;;;;;14.56;41.63;101538.44;1792035;78;21303;-84
2021/09/07 07:02:14;;;;;;;4.95;2.12;;;;;;;14.64;41.76;101552.73;1784571;78;21279;-78
2021/09/07 07:05:24;;;;;;;7.22;2.50;;;;;;;14.71;40.81;101554.27;1774688;79;21215;-78
2021/09/07 07:08:30;;;;;;;5.15;1.75;;;;;;;14.72;41.38;101555.98;1801625;79;21172;-79
2021/09/07 07:11:36;;;;;;;3.17;1.75;;;;;;;14.74;41.83;101547.89;1800338;78;21591;-78
2021/09/07 07:14:42;;;;;;;4.53;1.62;;;;;;;14.73;39.90;101567.36;1802867;79;21287;-79
2021/09/07 07:17:47;;;;;;;2.45;1.60;;;;;;;14.73;40.41;101554.97;1805200;77;21283;-77
2021/09/07 07:20:54;;;;;;;8.38;1.80;;;;;;;14.77;41.04;101561.33;1772022;79;21158;-79
2021/09/07 07:24:00;;;;;;;3.62;2.02;;;;;;;14.88;40.59;101557.88;1804450;77;21838;-77
2021/09/07 07:27:09;;;;;;;3.42;1.77;;;;;;;14.95;40.37;101563.87;1775349;80;21644;-78
2021/09/07 07:30:15;;;;;;;8.90;1.98;;;;;;;15.03;39.27;101563.01;1790632;78;21912;-77
2021/09/07 07:33:23;;;;;;;5.05;1.92;;;;;;;15.05;39.23;101564.53;1767691;79;21312;-80
2021/09/07 07:36:33;;;;;;;4.50;2.00;;;;;;;15.17;39.30;101564.19;1772718;79;21548;-78
2021/09/07 07:39:43;;;;;;;3.20;1.55;;;;;;;15.25;39.27;101563.65;1801917;79;21919;-78
2021/09/07 07:42:48;;;;;;;4.62;1.80;;;;;;;15.31;38.72;101556.04;1796226;77;21223;-79
2021/09/07 07:45:53;;;;;;;6.20;1.52;;;;;;;15.36;37.52;101561.02;1765083;79;21682;-78
2021/09/07 07:49:03;;;;;;;4.42;1.50;;;;;;;15.41;37.94;101555.84;1802339;78;21329;-78
2021/09/07 07:52:08;;;;;;;19.52;2.22;;;;;;;15.47;37.99;101557.88;1764683;80;21219;-80
2021/09/07 07:55:14;;;;;;;2.33;1.50;;;;;;;15.49;37.55;101565.98;1801530;77;21216;-83
2021/09/07 07:58:20;;;;;;;7.97;1.67;;;;;;;15.50;37.63;101558.05;1794533;79;21177;-78
2021/09/07 08:01:26;;;;;;;2.55;1.55;;;;;;;15.59;37.12;101568.86;1774919;79;21674;-78
2021/09/07 08:04:33;;;;;;;9.45;1.70;;;;;;;15.70;36.80;101570.92;1772639;79;21855;-78
2021/09/07 08:07:40;;;;;;;3.40;1.50;;;;;;;15.74;36.32;101568.14;1770123;79;21208;-78
2021/09/07 08:10:49;;;;;;;4.42;1.60;;;;;;;15.75;37.43;101561.58;1795485;78;21693;-78
2021/09/07 08:13:57;;;;;;;2.20;1.57;;;;;;;15.83;36.86;101560.17;1806423;78;21348;-83
2021/09/07 08:17:02;;;;;;;4.28;1.57;;;;;;;15.88;36.65;101556.34;1799911;78;21285;-84
2021/09/07 08:20:09;;;;;;;6.42;1.85;;;;;;;15.95;36.63;101557.84;1796800;78;22132;-81
2021/09/07 08:23:15;;;;;;;10.03;1.82;;;;;;;16.01;36.83;101559.37;1803052;78;21914;-85
2021/09/07 08:26:20;;;;;;;3.75;1.90;;;;;;;16.06;36.48;101556.92;1772652;79;21745;-80
2021/09/07 08:29:24;;;;;;;1.52;1.12;;;;;;;16.06;36.75;101554.17;1764572;79;21447;-80
2021/09/07 08:32:30;;;;;;;1.85;1.52;;;;;;;16.07;35.40;101561.40;1792516;77;21506;-80
2021/09/07 08:35:37;;;;;;;3.83;1.80;;;;;;;16.03;36.23;101554.52;1771916;79;21517;-80
2021/09/07 08:38:42;;;;;;;4.90;1.60;;;;;;;16.03;36.46;101549.00;1765673;79;21187;-78
2021/09/07 08:41:47;;;;;;;3.95;1.77;;;;;;;16.08;36.03;101556.21;1795455;78;22034;-80
2021/09/07 08:44:53;;;;;;;3.02;1.70;;;;;;;16.08;36.84;101558.97;1798702;78;21277;-80
2021/09/07 08:47:58;;;;;;;4.67;1.47;;;;;;;16.07;37.14;101553.13;1765612;79;21331;-79
2021/09/07 08:51:25;;;;;;;3.52;1.45;;;;;;;16.08;36.46;101549.84;1771393;78;21220;-81
2021/09/07 08:54:31;;;;;;;3.72;1.60;;;;;;;16.15;34.39;101554.12;1796705;77;21339;-82
2021/09/07 08:58:02;;;;;;;2.55;1.35;;;;;;;16.18;35.43;101550.98;1748060;77;60912;-78
2021/09/07 09:01:24;;;;;;;1.65;1.15;;;;;;;16.23;35.12;101552.66;1692381;82;21402;-78
2021/09/07 09:04:38;;;;;;;4.53;1.50;;;;;;;16.25;34.19;101545.94;1715034;82;21199;-77
2021/09/07 09:08:04;;;;;;;2.92;1.30;;;;;;;16.16;34.71;101545.66;1685123;83;21331;-77
2021/09/07 09:11:16;;;;;;;2.30;1.30;;;;;;;16.15;34.83;101549.98;1716345;82;21146;-79
2021/09/07 09:14:46;;;;;;;3.15;1.67;;;;;;;16.21;35.20;101554.77;1708803;82;21262;-77
2021/09/07 09:17:57;;;;;;;2.33;1.27;;;;;;;16.27;34.63;101547.12;1716536;81;22498;-77
2021/09/07 09:21:37;;;;;;;3.30;1.17;;;;;;;16.26;33.83;101553.69;1689108;82;21153;-76
2021/09/07 09:24:44;;;;;;;39.78;3.60;;;;;;;16.28;34.10;101550.24;1705004;82;21212;-78
2021/09/07 09:27:50;;;;;;;10.45;1.75;;;;;;;16.33;33.19;101540.88;1712791;82;21925;-79
2021/09/07 09:30:59;;;;;;;4.70;1.50;;;;;;;16.28;33.34;101537.81;1712481;82;21287;-78
2021/09/07 09:34:10;;;;;;;2.92;1.47;;;;;;;16.27;33.49;101545.73;1714188;82;21307;-78
2021/09/07 09:37:21;;;;;;;1.50;1.00;;;;;;;16.31;32.61;101533.28;1687387;82;21223;-78
2021/09/07 09:40:32;;;;;;;2.17;1.20;;;;;;;16.32;32.38;101545.52;1690447;83;21303;-78
2021/09/07 09:43:46;;;;;;;5.10;1.22;;;;;;;16.36;31.49;101536.35;1709891;82;21169;-79
2021/09/07 09:46:57;;;;;;;1.95;1.40;;;;;;;16.42;31.96;101548.06;1712552;82;21568;-80
2021/09/07 09:50:06;;;;;;;1.62;1.12;;;;;;;16.46;32.13;101549.91;1676295;84;21890;-77
2021/09/07 09:53:17;;;;;;;6.47;1.80;;;;;;;16.48;30.72;101541.79;1656660;83;21210;-79
2021/09/07 09:56:22;;;;;;;3.87;1.17;;;;;;;16.52;32.03;101544.52;1687735;82;21279;-79
2021/09/07 09:59:29;;;;;;;5.05;1.77;;;;;;;16.57;31.26;101541.20;1708989;82;21923;-80
2021/09/07 10:02:36;;;;;;;2.98;1.17;;;;;;;16.62;31.32;101544.27;1704822;82;21255;-79
2021/09/07 10:05:42;;;;;;;2.67;1.35;;;;;;;16.65;31.15;101537.49;1704795;82;21414;-78
2021/09/07 10:08:49;;;;;;;5.25;1.40;;;;;;;16.66;29.92;101524.89;1704300;82;21283;-79
2021/09/07 10:12:01;;;;;;;2.58;1.10;;;;;;;16.69;29.70;101531.41;1701576;82;21231;-77
2021/09/07 10:15:19;;;;;;;2.12;1.12;;;;;;;16.73;29.68;101525.88;1656597;82;21223;-77
2021/09/07 10:18:46;;;;;;;3.17;1.60;;;;;;;16.81;30.66;101518.05;1684297;83;21189;-78
2021/09/07 10:25:21;;;;;;;2.87;1.32;;;;;;;16.85;31.44;101526.30;1688042;83;21341;-77
2021/09/07 10:28:42;;;;;;;9.13;2.15;;;;;;;16.82;31.56;101522.52;1660423;83;21209;-77
2021/09/07 10:31:54;;;;;;;2.25;1.35;;;;;;;16.83;31.43;101520.08;1688904;83;21334;-77
2021/09/07 10:35:25;;;;;;;2.85;1.60;;;;;;;16.89;30.75;101524.87;1641912;83;21299;-78
2021/09/07 10:38:48;;;;;;;4.62;1.40;;;;;;;16.97;30.30;101522.01;1636119;83;21294;-79
2021/09/07 10:41:56;;;;;;;3.55;1.20;;;;;;;17.06;30.62;101516.73;1670956;83;21293;-79
2021/09/07 10:45:13;;;;;;;2.75;1.20;;;;;;;17.12;30.84;101523.40;1689434;83;21199;-80
2021/09/07 10:48:39;;;;;;;3.70;1.60;;;;;;;17.13;30.82;101522.38;1649100;83;22541;-78
2021/09/07 10:52:05;;;;;;;3.10;1.40;;;;;;;17.11;30.36;101538.27;1652332;85;21252;-78
2021/09/07 10:55:14;;;;;;;2.33;1.50;;;;;;;17.11;29.74;101530.84;1705337;82;21292;-78
2021/09/07 10:58:40;;;;;;;5.37;1.30;;;;;;;17.08;30.27;101525.70;1707117;81;21555;-77
2021/09/07 11:01:49;;;;;;;2.67;1.10;;;;;;;17.13;30.45;101518.76;1686374;82;21224;-79
2021/09/07 11:05:04;;;;;;;14.65;2.30;;;;;;;17.16;29.69;101527.50;1713747;82;21717;-79
2021/09/07 11:08:15;;;;;;;3.02;1.45;;;;;;;17.15;29.90;101522.17;1698827;82;21223;-80
2021/09/07 11:11:33;;;;;;;3.62;2.12;;;;;;;17.20;29.87;101526.61;1698692;82;21216;-77
2021/09/07 11:15:05;;;;;;;8.00;1.92;;;;;;;17.21;29.91;101528.31;1677853;82;21246;-78
2021/09/07 11:18:35;;;;;;;5.30;1.90;;;;;;;17.19;30.02;101518.84;1693917;81;22255;-79
2021/09/07 11:21:57;;;;;;;4.62;1.70;;;;;;;17.24;30.20;101512.21;1699696;82;21171;-79
2021/09/07 11:25:18;;;;;;;3.58;2.08;;;;;;;17.26;30.29;101505.09;1687397;83;22049;-78
2021/09/07 11:28:26;;;;;;;5.78;2.40;;;;;;;17.28;30.29;101512.16;1714460;82;21351;-80
2021/09/07 11:31:32;;;;;;;19.40;3.65;;;;;;;17.32;30.09;101514.03;1683085;83;21224;-78
2021/09/07 11:34:37;;;;;;;5.42;2.33;;;;;;;17.32;30.01;101505.73;1724434;81;21330;-77
2021/09/07 11:37:42;;;;;;;5.33;1.92;;;;;;;17.31;29.90;101494.31;1685439;83;21219;-78
2021/09/07 11:40:56;;;;;;;7.58;1.90;;;;;;;17.32;29.91;101496.91;1691313;83;21747;-79
2021/09/07 11:44:03;;;;;;;2.42;1.57;;;;;;;17.29;29.16;101489.52;1692699;83;21545;-78
2021/09/07 11:47:13;;;;;;;3.92;1.50;;;;;;;17.23;29.44;101495.82;1720074;82;21333;-78
2021/09/07 12:02:34;;;;;;;3.22;1.95;;;;;;;17.16;30.19;101493.47;1842061;76;28166;-79
2021/09/07 12:06:19;;;;;;;4.17;2.12;;;;;;;17.10;29.91;101489.58;1814807;77;21286;-78
2021/09/07 12:09:36;;;;;;;3.27;2.25;;;;;;;17.08;30.42;101481.48;1657862;84;21165;-79
2021/09/07 12:12:44;;;;;;;4.33;2.00;;;;;;;17.15;30.45;101497.30;1659104;84;21989;-80
2021/09/07 12:15:55;;;;;;;7.62;2.87;;;;;;;17.18;30.24;101489.48;1655227;84;21662;-79
2021/09/07 12:19:05;;;;;;;;;;;;;;;17.18;29.91;101479.81;1662700;84;21264;-78
2021/09/07 12:22:37;;;;;;;5.50;1.95;;;;;;;17.19;29.98;101476.52;1638630;84;20728;-79
2021/09/07 12:25:59;;;;;;;5.37;1.90;;;;;;;17.19;29.97;101478.75;1646795;85;21208;-78
2021/09/07 12:29:25;;;;;;;4.40;2.30;;;;;;;17.18;29.56;101477.05;1635813;86;21149;-78
2021/09/07 12:32:31;;;;;;;3.75;2.20;;;;;;;17.15;29.74;101478.80;1663110;84;21271;-79
2021/09/07 12:35:43;;;;;;;4.33;2.20;;;;;;;17.13;30.04;101467.09;1649386;84;21203;-80
2021/09/07 12:38:53;;;;;;;6.20;1.95;;;;;;;17.13;29.71;101458.80;1662223;84;21635;-79
2021/09/07 12:42:02;;;;;;;3.70;1.47;;;;;;;17.08;30.28;101456.60;1658418;84;21605;-79
2021/09/07 12:45:09;;;;;;;6.67;1.37;;;;;;;17.11;30.35;101456.20;1658948;85;21220;-78
2021/09/07 12:48:17;;;;;;;8.25;1.70;;;;;;;17.14;30.74;101456.88;1662594;84;21851;-79
2021/09/07 12:51:44;;;;;;;4.03;1.30;;;;;;;17.21;30.70;101460.58;1666722;84;21196;-80
2021/09/07 12:54:50;;;;;;;2.30;1.52;;;;;;;17.23;30.56;101457.11;1651869;84;21267;-80
2021/09/07 12:57:55;;;;;;;8.95;2.05;;;;;;;17.24;30.08;101458.83;1660174;84;21212;-79
2021/09/07 13:01:02;;;;;;;3.50;2.12;;;;;;;17.21;29.95;101446.75;1646533;84;21425;-80
2021/09/07 13:04:10;;;;;;;4.03;2.10;;;;;;;17.17;29.96;101442.66;1651528;86;21621;-79
2021/09/07 13:07:20;;;;;;;3.85;1.90;;;;;;;17.17;29.78;101437.13;1638026;85;21266;-78
2021/09/07 13:10:25;;;;;;;3.70;2.15;;;;;;;17.16;30.05;101434.03;1665799;85;21353;-78
2021/09/07 13:13:32;;;;;;;6.05;2.47;;;;;;;17.12;30.62;101436.32;1662770;85;21584;-78
2021/09/07 13:16:40;;;;;;;5.80;2.27;;;;;;;17.11;30.85;101435.47;1668769;85;22449;-79
2021/09/07 13:19:47;;;;;;;4.85;2.47;;;;;;;17.08;30.74;101423.44;1627907;85;21239;-80
2021/09/07 13:22:54;;;;;;;6.22;2.20;;;;;;;17.07;30.86;101427.22;1654879;85;21263;-80
2021/09/07 13:26:01;;;;;;;2.87;1.12;;;;;;;17.08;30.55;101437.25;1672872;85;21354;-77
2021/09/07 13:29:05;;;;;;;3.22;1.82;;;;;;;17.07;30.37;101426.37;1671659;85;21188;-77
2021/09/07 13:32:10;;;;;;;4.05;2.55;;;;;;;17.07;30.39;101431.37;1675990;85;21283;-78
2021/09/07 13:35:16;;;;;;;4.87;2.25;;;;;;;17.04;30.45;101412.42;1668880;85;21410;-78
2021/09/07 13:38:22;;;;;;;3.85;2.65;;;;;;;17.01;30.83;101421.09;1660398;85;21415;-79
2021/09/07 13:41:28;;;;;;;5.47;2.70;;;;;;;16.99;31.07;101424.58;1664381;85;21358;-81
2021/09/07 13:44:33;;;;;;;2.98;1.92;;;;;;;16.96;30.92;101424.95;1655688;85;21394;-79
2021/09/07 13:47:39;;;;;;;4.35;2.00;;;;;;;16.93;31.12;101423.09;1632051;88;21349;-79
2021/09/07 13:50:44;;;;;;;5.28;1.52;;;;;;;16.92;31.21;101422.77;1632249;88;21425;-79
2021/09/07 13:53:50;;;;;;;4.00;1.15;;;;;;;16.89;31.29;101428.66;1649802;86;22025;-79
2021/09/07 13:56:56;;;;;;;4.55;1.77;;;;;;;16.85;31.42;101418.01;1659385;86;21886;-79
2021/09/07 14:00:03;;;;;;;4.08;2.05;;;;;;;16.83;31.57;101420.61;1660071;85;21862;-79
2021/09/07 14:03:08;;;;;;;4.97;1.95;;;;;;;16.82;32.15;101424.43;1632102;88;21913;-79
2021/09/07 14:06:14;;;;;;;9.95;1.67;;;;;;;16.83;32.25;101428.38;1633631;88;21248;-78
2021/09/07 14:09:20;;;;;;;8.13;1.75;;;;;;;16.84;32.11;101430.61;1631202;87;21919;-78
2021/09/07 14:12:25;;;;;;;3.40;1.62;;;;;;;16.80;32.00;101425.16;1625314;88;21935;-78
2021/09/07 14:15:30;;;;;;;4.30;1.75;;;;;;;16.74;32.40;101429.52;1625604;88;21348;-78
2021/09/07 14:18:36;;;;;;;3.87;2.20;;;;;;;16.71;32.66;101423.50;1625701;88;22477;-80
2021/09/07 14:21:42;;;;;;;3.27;1.77;;;;;;;16.69;32.61;101426.96;1624437;88;21342;-79
2021/09/07 14:24:50;;;;;;;10.65;2.70;;;;;;;16.68;32.79;101434.92;1659445;85;21240;-80
2021/09/07 14:27:56;;;;;;;12.20;2.12;;;;;;;16.68;32.44;101424.72;1652472;87;21390;-78
2021/09/07 14:31:01;;;;;;;2.50;1.42;;;;;;;16.66;32.61;101429.59;1652952;87;21339;-78
2021/09/07 14:34:06;;;;;;;8.00;1.57;;;;;;;16.64;32.56;101430.28;1652103;87;21403;-78
2021/09/07 14:37:11;;;;;;;2.27;1.30;;;;;;;16.64;32.62;101428.91;1652908;87;21403;-78
2021/09/07 14:40:18;;;;;;;2.08;1.42;;;;;;;16.60;32.72;101431.18;1652145;87;21240;-78
2021/09/07 14:43:24;;;;;;;5.35;3.25;;;;;;;16.57;32.71;101437.10;1652893;87;21371;-78
2021/09/07 14:46:29;;;;;;;8.63;3.42;;;;;;;16.53;33.13;101437.67;1654049;87;21383;-78
2021/09/07 14:49:34;;;;;;;6.47;2.70;;;;;;;16.50;33.07;101425.08;1654192;87;21327;-78
2021/09/07 14:52:45;;;;;;;4.53;2.67;;;;;;;16.47;33.17;101432.38;1653902;87;21370;-78